Colora, Maryland
Current Conditions -  °F | °C
As of 10:15 PM on Saturday 20 Dec 2014 (Local Time) from KMQS Reporting Station
Few Clouds Few Clouds  
Wind Chill: 28°   Ceiling: Unl
Heat Index: 28°   Visibility: 10mi
Dew Point: 25°   Wind: 3mph
Humidity: 86%   Direction: 290°WNW
Pressure: 30.28"   Gusts: NA
Location:  39.67°N, 76.1°W
Report Text: KMQS 210315Z AUTO 29003KT 10SM FEW110 M02/M04 A3028 RMK AO2
Loading
Personal Weather Stations






























Interactive Weather Map New forecast layout! Learn more

10-Day Weather Forecast

Advertisements
Track Severe Weather on mobile